sensor_id;sensor_type;location;lat;lon;timestamp;P1;durP1;ratioP1;P2;durP2;ratioP2
3563;SDS011;1796;52.388;13.096;2023-05-23T00:01:02;5.00;;;4.50;;
3563;SDS011;1796;52.388;13.096;2023-05-23T00:03:30;10.10;;;4.20;;
3563;SDS011;1796;52.388;13.096;2023-05-23T00:05:57;8.63;;;4.63;;
3563;SDS011;1796;52.388;13.096;2023-05-23T00:08:24;8.90;;;4.43;;
3563;SDS011;1796;52.388;13.096;2023-05-23T00:10:51;13.33;;;4.67;;
3563;SDS011;1796;52.388;13.096;2023-05-23T00:13:18;8.30;;;3.83;;
3563;SDS011;1796;52.388;13.096;2023-05-23T00:15:46;10.33;;;5.00;;
3563;SDS011;1796;52.388;13.096;2023-05-23T00:18:13;6.77;;;4.33;;
3563;SDS011;1796;52.388;13.096;2023-05-23T00:20:40;4.50;;;4.07;;
3563;SDS011;1796;52.388;13.096;2023-05-23T00:23:07;5.37;;;4.83;;
3563;SDS011;1796;52.388;13.096;2023-05-23T00:25:35;6.07;;;4.67;;
3563;SDS011;1796;52.388;13.096;2023-05-23T00:28:02;5.60;;;4.37;;
3563;SDS011;1796;52.388;13.096;2023-05-23T00:30:30;5.23;;;4.17;;
3563;SDS011;1796;52.388;13.096;2023-05-23T00:32:59;24.93;;;4.67;;
3563;SDS011;1796;52.388;13.096;2023-05-23T00:35:27;6.40;;;4.97;;
3563;SDS011;1796;52.388;13.096;2023-05-23T00:37:54;9.30;;;4.33;;
3563;SDS011;1796;52.388;13.096;2023-05-23T00:40:21;11.50;;;4.73;;
3563;SDS011;1796;52.388;13.096;2023-05-23T00:42:48;7.27;;;5.20;;
3563;SDS011;1796;52.388;13.096;2023-05-23T00:45:15;7.63;;;4.67;;
3563;SDS011;1796;52.388;13.096;2023-05-23T00:47:43;9.10;;;4.67;;
3563;SDS011;1796;52.388;13.096;2023-05-23T00:50:13;4.40;;;4.00;;
3563;SDS011;1796;52.388;13.096;2023-05-23T00:52:41;5.17;;;4.27;;
3563;SDS011;1796;52.388;13.096;2023-05-23T00:55:09;5.03;;;4.33;;
3563;SDS011;1796;52.388;13.096;2023-05-23T00:57:37;9.00;;;5.13;;
3563;SDS011;1796;52.388;13.096;2023-05-23T01:00:05;8.40;;;5.00;;
3563;SDS011;1796;52.388;13.096;2023-05-23T01:02:34;7.97;;;4.50;;
3563;SDS011;1796;52.388;13.096;2023-05-23T01:05:05;12.77;;;4.53;;
3563;SDS011;1796;52.388;13.096;2023-05-23T01:07:34;5.67;;;4.40;;
3563;SDS011;1796;52.388;13.096;2023-05-23T01:10:01;6.40;;;4.10;;
3563;SDS011;1796;52.388;13.096;2023-05-23T01:12:28;4.70;;;4.30;;
3563;SDS011;1796;52.388;13.096;2023-05-23T01:15:04;6.23;;;4.27;;
3563;SDS011;1796;52.388;13.096;2023-05-23T01:17:37;5.93;;;5.00;;
3563;SDS011;1796;52.388;13.096;2023-05-23T01:20:10;12.90;;;4.77;;
3563;SDS011;1796;52.388;13.096;2023-05-23T01:25:47;5.50;;;4.53;;
3563;SDS011;1796;52.388;13.096;2023-05-23T01:28:30;4.37;;;4.00;;
3563;SDS011;1796;52.388;13.096;2023-05-23T01:31:01;4.10;;;3.80;;
3563;SDS011;1796;52.388;13.096;2023-05-23T01:33:30;9.00;;;4.37;;
3563;SDS011;1796;52.388;13.096;2023-05-23T01:35:59;7.53;;;4.87;;
3563;SDS011;1796;52.388;13.096;2023-05-23T01:38:27;8.97;;;4.27;;
3563;SDS011;1796;52.388;13.096;2023-05-23T01:40:54;6.20;;;4.93;;
3563;SDS011;1796;52.388;13.096;2023-05-23T01:43:21;4.53;;;4.13;;
3563;SDS011;1796;52.388;13.096;2023-05-23T01:45:50;11.77;;;4.80;;
3563;SDS011;1796;52.388;13.096;2023-05-23T01:48:18;4.67;;;4.37;;
3563;SDS011;1796;52.388;13.096;2023-05-23T01:50:47;6.50;;;4.63;;
3563;SDS011;1796;52.388;13.096;2023-05-23T01:53:15;8.90;;;5.33;;
3563;SDS011;1796;52.388;13.096;2023-05-23T01:55:44;6.03;;;5.07;;
3563;SDS011;1796;52.388;13.096;2023-05-23T01:58:11;9.50;;;4.93;;
3563;SDS011;1796;52.388;13.096;2023-05-23T02:00:38;8.83;;;5.73;;
3563;SDS011;1796;52.388;13.096;2023-05-23T02:03:06;7.63;;;5.30;;
3563;SDS011;1796;52.388;13.096;2023-05-23T02:05:33;5.13;;;4.63;;
3563;SDS011;1796;52.388;13.096;2023-05-23T02:08:00;7.00;;;5.20;;
3563;SDS011;1796;52.388;13.096;2023-05-23T02:10:27;6.30;;;4.27;;
3563;SDS011;1796;52.388;13.096;2023-05-23T02:12:54;5.23;;;4.30;;
3563;SDS011;1796;52.388;13.096;2023-05-23T02:15:21;5.43;;;4.40;;
3563;SDS011;1796;52.388;13.096;2023-05-23T02:17:48;5.83;;;4.97;;
3563;SDS011;1796;52.388;13.096;2023-05-23T02:20:17;4.87;;;4.43;;
3563;SDS011;1796;52.388;13.096;2023-05-23T02:22:44;6.20;;;4.80;;
3563;SDS011;1796;52.388;13.096;2023-05-23T02:25:11;4.20;;;3.80;;
3563;SDS011;1796;52.388;13.096;2023-05-23T02:27:39;16.93;;;4.23;;
3563;SDS011;1796;52.388;13.096;2023-05-23T02:30:07;6.70;;;4.40;;
3563;SDS011;1796;52.388;13.096;2023-05-23T02:32:34;13.67;;;5.33;;
3563;SDS011;1796;52.388;13.096;2023-05-23T02:35:01;6.10;;;4.30;;
3563;SDS011;1796;52.388;13.096;2023-05-23T02:37:30;5.67;;;4.27;;
3563;SDS011;1796;52.388;13.096;2023-05-23T02:39:57;5.90;;;4.53;;
3563;SDS011;1796;52.388;13.096;2023-05-23T02:42:25;4.97;;;4.47;;
3563;SDS011;1796;52.388;13.096;2023-05-23T02:44:52;5.00;;;4.60;;
3563;SDS011;1796;52.388;13.096;2023-05-23T02:47:18;11.80;;;4.60;;
3563;SDS011;1796;52.388;13.096;2023-05-23T02:49:45;7.93;;;4.50;;
3563;SDS011;1796;52.388;13.096;2023-05-23T02:52:12;5.63;;;4.20;;
3563;SDS011;1796;52.388;13.096;2023-05-23T02:54:40;4.80;;;4.40;;
3563;SDS011;1796;52.388;13.096;2023-05-23T02:57:07;9.50;;;4.60;;
3563;SDS011;1796;52.388;13.096;2023-05-23T02:59:34;5.90;;;4.70;;
3563;SDS011;1796;52.388;13.096;2023-05-23T03:02:01;7.53;;;4.73;;
3563;SDS011;1796;52.388;13.096;2023-05-23T03:04:28;8.23;;;5.00;;
3563;SDS011;1796;52.388;13.096;2023-05-23T03:06:55;11.73;;;6.27;;
3563;SDS011;1796;52.388;13.096;2023-05-23T03:09:23;10.93;;;4.97;;
3563;SDS011;1796;52.388;13.096;2023-05-23T03:11:52;5.57;;;5.07;;
3563;SDS011;1796;52.388;13.096;2023-05-23T03:14:19;6.30;;;4.40;;
3563;SDS011;1796;52.388;13.096;2023-05-23T03:16:45;5.00;;;4.60;;
3563;SDS011;1796;52.388;13.096;2023-05-23T03:19:12;4.50;;;4.10;;
3563;SDS011;1796;52.388;13.096;2023-05-23T03:21:39;5.30;;;4.80;;
3563;SDS011;1796;52.388;13.096;2023-05-23T03:24:06;5.07;;;4.60;;
3563;SDS011;1796;52.388;13.096;2023-05-23T03:26:33;4.73;;;4.27;;
3563;SDS011;1796;52.388;13.096;2023-05-23T03:29:01;7.00;;;5.20;;
3563;SDS011;1796;52.388;13.096;2023-05-23T03:31:28;7.73;;;4.67;;
3563;SDS011;1796;52.388;13.096;2023-05-23T03:33:55;6.60;;;5.20;;
3563;SDS011;1796;52.388;13.096;2023-05-23T03:36:22;13.53;;;5.07;;
3563;SDS011;1796;52.388;13.096;2023-05-23T03:38:52;5.90;;;4.60;;
3563;SDS011;1796;52.388;13.096;2023-05-23T03:41:19;5.13;;;4.33;;
3563;SDS011;1796;52.388;13.096;2023-05-23T03:43:46;5.80;;;4.80;;
3563;SDS011;1796;52.388;13.096;2023-05-23T03:46:14;7.27;;;4.83;;
3563;SDS011;1796;52.388;13.096;2023-05-23T03:48:41;12.63;;;5.00;;
3563;SDS011;1796;52.388;13.096;2023-05-23T03:51:08;6.73;;;5.50;;
3563;SDS011;1796;52.388;13.096;2023-05-23T03:53:37;6.17;;;5.40;;
3563;SDS011;1796;52.388;13.096;2023-05-23T03:56:04;8.33;;;5.37;;
3563;SDS011;1796;52.388;13.096;2023-05-23T03:58:31;6.20;;;5.07;;
3563;SDS011;1796;52.388;13.096;2023-05-23T04:00:58;11.60;;;4.67;;
3563;SDS011;1796;52.388;13.096;2023-05-23T04:03:27;11.07;;;5.33;;
3563;SDS011;1796;52.388;13.096;2023-05-23T04:05:56;6.43;;;4.80;;
3563;SDS011;1796;52.388;13.096;2023-05-23T04:08:23;6.67;;;5.07;;
3563;SDS011;1796;52.388;13.096;2023-05-23T04:10:50;4.83;;;4.40;;
3563;SDS011;1796;52.388;13.096;2023-05-23T04:13:17;7.87;;;5.23;;
3563;SDS011;1796;52.388;13.096;2023-05-23T04:15:44;6.77;;;5.97;;
3563;SDS011;1796;52.388;13.096;2023-05-23T04:18:12;11.77;;;5.90;;
3563;SDS011;1796;52.388;13.096;2023-05-23T04:20:42;6.20;;;5.60;;
3563;SDS011;1796;52.388;13.096;2023-05-23T04:23:09;6.77;;;6.07;;
3563;SDS011;1796;52.388;13.096;2023-05-23T04:25:36;12.60;;;6.20;;
3563;SDS011;1796;52.388;13.096;2023-05-23T04:28:03;7.70;;;5.23;;
3563;SDS011;1796;52.388;13.096;2023-05-23T04:30:30;7.17;;;5.23;;
3563;SDS011;1796;52.388;13.096;2023-05-23T04:32:57;10.23;;;5.00;;
3563;SDS011;1796;52.388;13.096;2023-05-23T04:35:24;7.57;;;5.47;;
3563;SDS011;1796;52.388;13.096;2023-05-23T04:37:53;4.87;;;4.37;;
3563;SDS011;1796;52.388;13.096;2023-05-23T04:40:21;8.70;;;5.47;;
3563;SDS011;1796;52.388;13.096;2023-05-23T04:42:48;7.37;;;5.27;;
3563;SDS011;1796;52.388;13.096;2023-05-23T04:45:15;11.53;;;5.70;;
3563;SDS011;1796;52.388;13.096;2023-05-23T04:47:43;7.40;;;6.03;;
3563;SDS011;1796;52.388;13.096;2023-05-23T04:50:10;12.70;;;6.00;;
3563;SDS011;1796;52.388;13.096;2023-05-23T04:52:38;9.63;;;6.07;;
3563;SDS011;1796;52.388;13.096;2023-05-23T04:55:07;8.80;;;5.33;;
3563;SDS011;1796;52.388;13.096;2023-05-23T04:57:34;6.63;;;5.93;;
3563;SDS011;1796;52.388;13.096;2023-05-23T05:00:01;7.60;;;5.63;;
3563;SDS011;1796;52.388;13.096;2023-05-23T05:02:32;7.43;;;5.00;;
3563;SDS011;1796;52.388;13.096;2023-05-23T05:05:00;7.30;;;5.83;;
3563;SDS011;1796;52.388;13.096;2023-05-23T05:07:28;9.17;;;5.80;;
3563;SDS011;1796;52.388;13.096;2023-05-23T05:09:54;10.83;;;6.00;;
3563;SDS011;1796;52.388;13.096;2023-05-23T05:12:23;9.43;;;5.97;;
3563;SDS011;1796;52.388;13.096;2023-05-23T05:14:50;13.07;;;6.30;;
3563;SDS011;1796;52.388;13.096;2023-05-23T05:17:16;10.40;;;5.63;;
3563;SDS011;1796;52.388;13.096;2023-05-23T05:19:44;10.00;;;5.73;;
3563;SDS011;1796;52.388;13.096;2023-05-23T05:22:10;11.43;;;4.80;;
3563;SDS011;1796;52.388;13.096;2023-05-23T05:24:37;13.80;;;5.30;;
3563;SDS011;1796;52.388;13.096;2023-05-23T05:27:05;7.60;;;5.57;;
3563;SDS011;1796;52.388;13.096;2023-05-23T05:29:34;9.97;;;5.80;;
3563;SDS011;1796;52.388;13.096;2023-05-23T05:32:02;13.50;;;5.50;;
3563;SDS011;1796;52.388;13.096;2023-05-23T05:34:29;11.50;;;5.27;;
3563;SDS011;1796;52.388;13.096;2023-05-23T05:36:55;19.20;;;5.67;;
3563;SDS011;1796;52.388;13.096;2023-05-23T05:39:23;6.00;;;4.87;;
3563;SDS011;1796;52.388;13.096;2023-05-23T05:41:51;6.80;;;4.87;;
3563;SDS011;1796;52.388;13.096;2023-05-23T05:44:17;46.00;;;6.67;;
3563;SDS011;1796;52.388;13.096;2023-05-23T05:46:46;9.10;;;4.40;;
3563;SDS011;1796;52.388;13.096;2023-05-23T05:49:13;7.90;;;5.63;;
3563;SDS011;1796;52.388;13.096;2023-05-23T05:51:40;6.37;;;5.67;;
3563;SDS011;1796;52.388;13.096;2023-05-23T05:54:07;7.70;;;4.97;;
3563;SDS011;1796;52.388;13.096;2023-05-23T05:56:34;7.83;;;5.80;;
3563;SDS011;1796;52.388;13.096;2023-05-23T05:59:01;7.20;;;5.80;;
3563;SDS011;1796;52.388;13.096;2023-05-23T06:01:28;15.10;;;6.00;;
3563;SDS011;1796;52.388;13.096;2023-05-23T06:03:56;7.90;;;4.97;;
3563;SDS011;1796;52.388;13.096;2023-05-23T06:06:23;5.60;;;5.10;;
3563;SDS011;1796;52.388;13.096;2023-05-23T06:08:51;11.80;;;6.10;;
3563;SDS011;1796;52.388;13.096;2023-05-23T06:11:17;14.33;;;5.90;;
3563;SDS011;1796;52.388;13.096;2023-05-23T06:13:44;12.60;;;6.13;;
3563;SDS011;1796;52.388;13.096;2023-05-23T06:16:11;8.80;;;5.90;;
3563;SDS011;1796;52.388;13.096;2023-05-23T06:18:39;8.10;;;5.17;;
3563;SDS011;1796;52.388;13.096;2023-05-23T06:21:07;10.07;;;5.00;;
3563;SDS011;1796;52.388;13.096;2023-05-23T06:23:35;7.10;;;6.40;;
3563;SDS011;1796;52.388;13.096;2023-05-23T06:26:02;9.57;;;4.77;;
3563;SDS011;1796;52.388;13.096;2023-05-23T06:28:32;7.03;;;5.43;;
3563;SDS011;1796;52.388;13.096;2023-05-23T06:30:58;6.23;;;5.60;;
3563;SDS011;1796;52.388;13.096;2023-05-23T06:33:26;7.87;;;5.00;;
3563;SDS011;1796;52.388;13.096;2023-05-23T06:35:55;9.70;;;5.73;;
3563;SDS011;1796;52.388;13.096;2023-05-23T06:38:25;6.90;;;6.20;;
3563;SDS011;1796;52.388;13.096;2023-05-23T06:40:53;11.43;;;5.67;;
3563;SDS011;1796;52.388;13.096;2023-05-23T06:43:20;9.63;;;5.83;;
3563;SDS011;1796;52.388;13.096;2023-05-23T06:45:47;7.40;;;5.70;;
3563;SDS011;1796;52.388;13.096;2023-05-23T06:48:14;5.83;;;5.30;;
3563;SDS011;1796;52.388;13.096;2023-05-23T06:50:41;8.00;;;5.10;;
3563;SDS011;1796;52.388;13.096;2023-05-23T06:53:07;8.90;;;5.47;;
3563;SDS011;1796;52.388;13.096;2023-05-23T06:55:36;19.93;;;4.93;;
3563;SDS011;1796;52.388;13.096;2023-05-23T06:58:02;5.93;;;5.07;;
3563;SDS011;1796;52.388;13.096;2023-05-23T07:00:29;7.40;;;5.70;;
3563;SDS011;1796;52.388;13.096;2023-05-23T07:02:56;14.13;;;6.50;;
3563;SDS011;1796;52.388;13.096;2023-05-23T07:05:25;9.97;;;4.80;;
3563;SDS011;1796;52.388;13.096;2023-05-23T07:07:52;4.90;;;4.33;;
3563;SDS011;1796;52.388;13.096;2023-05-23T07:10:19;7.60;;;5.60;;
3563;SDS011;1796;52.388;13.096;2023-05-23T07:12:48;6.10;;;5.00;;
3563;SDS011;1796;52.388;13.096;2023-05-23T07:15:14;7.50;;;5.20;;
3563;SDS011;1796;52.388;13.096;2023-05-23T07:17:41;12.60;;;5.23;;
3563;SDS011;1796;52.388;13.096;2023-05-23T07:20:08;6.27;;;4.73;;
3563;SDS011;1796;52.388;13.096;2023-05-23T07:22:36;6.27;;;5.30;;
3563;SDS011;1796;52.388;13.096;2023-05-23T07:25:03;9.50;;;4.70;;
3563;SDS011;1796;52.388;13.096;2023-05-23T07:27:30;5.90;;;5.07;;
3563;SDS011;1796;52.388;13.096;2023-05-23T07:29:58;7.63;;;5.37;;
3563;SDS011;1796;52.388;13.096;2023-05-23T07:32:25;6.80;;;5.40;;
3563;SDS011;1796;52.388;13.096;2023-05-23T07:34:52;8.00;;;4.93;;
3563;SDS011;1796;52.388;13.096;2023-05-23T07:37:19;6.73;;;4.60;;
3563;SDS011;1796;52.388;13.096;2023-05-23T07:39:46;8.10;;;6.83;;
3563;SDS011;1796;52.388;13.096;2023-05-23T07:42:13;7.17;;;5.40;;
3563;SDS011;1796;52.388;13.096;2023-05-23T07:44:40;10.00;;;6.10;;
3563;SDS011;1796;52.388;13.096;2023-05-23T07:47:08;6.80;;;5.30;;
3563;SDS011;1796;52.388;13.096;2023-05-23T07:49:37;6.50;;;4.87;;
3563;SDS011;1796;52.388;13.096;2023-05-23T07:52:04;6.60;;;5.40;;
3563;SDS011;1796;52.388;13.096;2023-05-23T07:54:31;11.73;;;5.80;;
3563;SDS011;1796;52.388;13.096;2023-05-23T07:56:58;7.50;;;5.20;;
3563;SDS011;1796;52.388;13.096;2023-05-23T07:59:26;7.80;;;4.67;;
3563;SDS011;1796;52.388;13.096;2023-05-23T08:01:54;7.50;;;5.20;;
3563;SDS011;1796;52.388;13.096;2023-05-23T08:04:22;4.83;;;4.43;;
3563;SDS011;1796;52.388;13.096;2023-05-23T08:06:49;15.03;;;5.07;;
3563;SDS011;1796;52.388;13.096;2023-05-23T08:09:16;10.63;;;4.87;;
3563;SDS011;1796;52.388;13.096;2023-05-23T08:11:42;12.80;;;5.20;;
3563;SDS011;1796;52.388;13.096;2023-05-23T08:14:09;8.27;;;5.33;;
3563;SDS011;1796;52.388;13.096;2023-05-23T08:16:36;6.50;;;5.90;;
3563;SDS011;1796;52.388;13.096;2023-05-23T08:19:03;8.00;;;5.70;;
3563;SDS011;1796;52.388;13.096;2023-05-23T08:21:31;6.27;;;5.40;;
3563;SDS011;1796;52.388;13.096;2023-05-23T08:23:58;7.30;;;5.43;;
3563;SDS011;1796;52.388;13.096;2023-05-23T08:26:25;17.67;;;5.77;;
3563;SDS011;1796;52.388;13.096;2023-05-23T08:28:58;9.57;;;6.40;;
3563;SDS011;1796;52.388;13.096;2023-05-23T08:31:26;10.60;;;6.70;;
3563;SDS011;1796;52.388;13.096;2023-05-23T08:33:53;11.27;;;5.80;;
3563;SDS011;1796;52.388;13.096;2023-05-23T08:36:19;10.10;;;7.93;;
3563;SDS011;1796;52.388;13.096;2023-05-23T08:38:48;9.57;;;6.60;;
3563;SDS011;1796;52.388;13.096;2023-05-23T08:41:17;7.07;;;6.47;;
3563;SDS011;1796;52.388;13.096;2023-05-23T08:43:45;9.87;;;7.30;;
3563;SDS011;1796;52.388;13.096;2023-05-23T08:46:12;12.50;;;7.27;;
3563;SDS011;1796;52.388;13.096;2023-05-23T08:48:41;8.33;;;7.37;;
3563;SDS011;1796;52.388;13.096;2023-05-23T08:51:08;10.77;;;7.13;;
3563;SDS011;1796;52.388;13.096;2023-05-23T08:53:37;7.30;;;6.60;;
3563;SDS011;1796;52.388;13.096;2023-05-23T08:56:08;8.27;;;6.70;;
3563;SDS011;1796;52.388;13.096;2023-05-23T08:58:35;8.37;;;7.50;;
3563;SDS011;1796;52.388;13.096;2023-05-23T09:01:03;7.90;;;7.10;;
3563;SDS011;1796;52.388;13.096;2023-05-23T09:03:30;9.40;;;7.10;;
3563;SDS011;1796;52.388;13.096;2023-05-23T09:05:57;8.03;;;7.03;;
3563;SDS011;1796;52.388;13.096;2023-05-23T09:08:24;17.03;;;7.87;;
3563;SDS011;1796;52.388;13.096;2023-05-23T09:10:51;8.60;;;7.70;;
3563;SDS011;1796;52.388;13.096;2023-05-23T09:13:20;8.23;;;7.30;;
3563;SDS011;1796;52.388;13.096;2023-05-23T09:15:57;11.63;;;7.50;;
3563;SDS011;1796;52.388;13.096;2023-05-23T09:18:28;10.00;;;8.57;;
3563;SDS011;1796;52.388;13.096;2023-05-23T09:21:00;9.90;;;7.83;;
3563;SDS011;1796;52.388;13.096;2023-05-23T09:23:28;8.03;;;7.23;;
3563;SDS011;1796;52.388;13.096;2023-05-23T09:25:56;8.27;;;7.47;;
3563;SDS011;1796;52.388;13.096;2023-05-23T09:28:28;11.10;;;8.00;;
3563;SDS011;1796;52.388;13.096;2023-05-23T09:30:57;8.50;;;7.70;;
3563;SDS011;1796;52.388;13.096;2023-05-23T09:33:28;23.90;;;8.70;;
3563;SDS011;1796;52.388;13.096;2023-05-23T09:36:00;10.80;;;8.13;;
3563;SDS011;1796;52.388;13.096;2023-05-23T09:38:28;9.80;;;8.67;;
3563;SDS011;1796;52.388;13.096;2023-05-23T09:40:55;9.87;;;8.70;;
3563;SDS011;1796;52.388;13.096;2023-05-23T09:43:23;13.57;;;9.60;;
3563;SDS011;1796;52.388;13.096;2023-05-23T09:45:52;10.03;;;9.03;;
3563;SDS011;1796;52.388;13.096;2023-05-23T09:48:26;16.10;;;10.20;;
3563;SDS011;1796;52.388;13.096;2023-05-23T09:50:54;14.07;;;11.17;;
3563;SDS011;1796;52.388;13.096;2023-05-23T09:53:21;14.07;;;12.27;;
3563;SDS011;1796;52.388;13.096;2023-05-23T09:55:48;20.13;;;14.07;;
3563;SDS011;1796;52.388;13.096;2023-05-23T09:58:18;18.73;;;12.90;;
3563;SDS011;1796;52.388;13.096;2023-05-23T10:00:45;18.67;;;14.90;;
3563;SDS011;1796;52.388;13.096;2023-05-23T10:03:15;18.13;;;14.07;;
3563;SDS011;1796;52.388;13.096;2023-05-23T10:05:47;21.60;;;15.30;;
3563;SDS011;1796;52.388;13.096;2023-05-23T10:08:18;20.40;;;15.83;;
3563;SDS011;1796;52.388;13.096;2023-05-23T10:13:52;19.20;;;15.70;;
3563;SDS011;1796;52.388;13.096;2023-05-23T10:16:22;24.97;;;18.40;;
3563;SDS011;1796;52.388;13.096;2023-05-23T10:18:54;23.87;;;15.40;;
3563;SDS011;1796;52.388;13.096;2023-05-23T10:21:23;20.77;;;16.50;;
3563;SDS011;1796;52.388;13.096;2023-05-23T10:23:56;29.43;;;18.17;;
3563;SDS011;1796;52.388;13.096;2023-05-23T10:26:24;22.60;;;16.50;;
3563;SDS011;1796;52.388;13.096;2023-05-23T10:28:52;22.27;;;16.60;;
3563;SDS011;1796;52.388;13.096;2023-05-23T10:31:20;21.53;;;16.93;;
3563;SDS011;1796;52.388;13.096;2023-05-23T10:33:49;25.23;;;18.07;;
3563;SDS011;1796;52.388;13.096;2023-05-23T10:36:25;19.70;;;16.60;;
3563;SDS011;1796;52.388;13.096;2023-05-23T10:38:57;20.87;;;15.30;;
3563;SDS011;1796;52.388;13.096;2023-05-23T10:41:30;23.57;;;16.20;;
3563;SDS011;1796;52.388;13.096;2023-05-23T10:44:08;21.60;;;15.60;;
3563;SDS011;1796;52.388;13.096;2023-05-23T10:46:50;20.50;;;15.33;;
3563;SDS011;1796;52.388;13.096;2023-05-23T10:49:19;24.33;;;15.47;;
3563;SDS011;1796;52.388;13.096;2023-05-23T10:51:47;18.73;;;14.77;;
3563;SDS011;1796;52.388;13.096;2023-05-23T10:54:16;21.10;;;16.13;;
3563;SDS011;1796;52.388;13.096;2023-05-23T10:56:44;27.83;;;15.73;;
3563;SDS011;1796;52.388;13.096;2023-05-23T10:59:18;23.47;;;16.53;;
3563;SDS011;1796;52.388;13.096;2023-05-23T11:01:45;22.93;;;14.10;;
3563;SDS011;1796;52.388;13.096;2023-05-23T11:04:15;20.17;;;15.53;;
3563;SDS011;1796;52.388;13.096;2023-05-23T11:06:52;21.53;;;14.57;;
3563;SDS011;1796;52.388;13.096;2023-05-23T11:09:19;21.33;;;13.93;;
3563;SDS011;1796;52.388;13.096;2023-05-23T11:11:53;29.70;;;15.37;;
3563;SDS011;1796;52.388;13.096;2023-05-23T11:14:30;16.63;;;13.23;;
3563;SDS011;1796;52.388;13.096;2023-05-23T11:16:58;17.60;;;13.33;;
3563;SDS011;1796;52.388;13.096;2023-05-23T11:19:27;25.77;;;13.30;;
3563;SDS011;1796;52.388;13.096;2023-05-23T11:21:55;15.97;;;12.83;;
3563;SDS011;1796;52.388;13.096;2023-05-23T11:27:16;12.83;;;11.53;;
3563;SDS011;1796;52.388;13.096;2023-05-23T11:29:54;21.87;;;12.63;;
3563;SDS011;1796;52.388;13.096;2023-05-23T11:32:26;13.23;;;11.30;;
3563;SDS011;1796;52.388;13.096;2023-05-23T11:34:56;15.80;;;11.50;;
3563;SDS011;1796;52.388;13.096;2023-05-23T11:37:25;18.90;;;11.57;;
3563;SDS011;1796;52.388;13.096;2023-05-23T11:39:52;19.90;;;11.43;;
3563;SDS011;1796;52.388;13.096;2023-05-23T11:42:19;16.00;;;11.80;;
3563;SDS011;1796;52.388;13.096;2023-05-23T11:44:47;12.63;;;10.93;;
3563;SDS011;1796;52.388;13.096;2023-05-23T11:47:14;17.53;;;12.63;;
3563;SDS011;1796;52.388;13.096;2023-05-23T11:49:42;15.07;;;10.57;;
3563;SDS011;1796;52.388;13.096;2023-05-23T11:52:12;13.97;;;11.73;;
3563;SDS011;1796;52.388;13.096;2023-05-23T11:54:39;13.53;;;11.23;;
3563;SDS011;1796;52.388;13.096;2023-05-23T11:57:07;13.97;;;11.40;;
3563;SDS011;1796;52.388;13.096;2023-05-23T11:59:34;14.50;;;11.93;;
3563;SDS011;1796;52.388;13.096;2023-05-23T12:02:01;14.27;;;11.90;;
3563;SDS011;1796;52.388;13.096;2023-05-23T12:04:31;14.60;;;11.17;;
3563;SDS011;1796;52.388;13.096;2023-05-23T12:07:03;13.40;;;11.13;;
3563;SDS011;1796;52.388;13.096;2023-05-23T12:09:33;13.90;;;10.93;;
3563;SDS011;1796;52.388;13.096;2023-05-23T12:12:07;13.43;;;10.40;;
3563;SDS011;1796;52.388;13.096;2023-05-23T12:14:34;14.20;;;12.00;;
3563;SDS011;1796;52.388;13.096;2023-05-23T12:17:03;18.47;;;11.60;;
3563;SDS011;1796;52.388;13.096;2023-05-23T12:19:30;13.23;;;11.63;;
3563;SDS011;1796;52.388;13.096;2023-05-23T12:21:57;14.30;;;11.60;;
3563;SDS011;1796;52.388;13.096;2023-05-23T12:24:33;15.27;;;12.00;;
3563;SDS011;1796;52.388;13.096;2023-05-23T12:27:01;17.60;;;13.10;;
3563;SDS011;1796;52.388;13.096;2023-05-23T12:29:29;16.47;;;12.63;;
3563;SDS011;1796;52.388;13.096;2023-05-23T12:31:57;13.80;;;12.40;;
3563;SDS011;1796;52.388;13.096;2023-05-23T12:34:24;15.50;;;12.07;;
3563;SDS011;1796;52.388;13.096;2023-05-23T12:36:53;12.00;;;10.83;;
3563;SDS011;1796;52.388;13.096;2023-05-23T12:39:23;13.40;;;11.97;;
3563;SDS011;1796;52.388;13.096;2023-05-23T12:41:53;14.90;;;10.03;;
3563;SDS011;1796;52.388;13.096;2023-05-23T12:44:22;10.80;;;9.70;;
3563;SDS011;1796;52.388;13.096;2023-05-23T12:46:49;13.70;;;9.93;;
3563;SDS011;1796;52.388;13.096;2023-05-23T12:49:16;13.63;;;11.10;;
3563;SDS011;1796;52.388;13.096;2023-05-23T12:51:43;12.13;;;10.27;;
3563;SDS011;1796;52.388;13.096;2023-05-23T12:54:10;12.03;;;10.67;;
3563;SDS011;1796;52.388;13.096;2023-05-23T12:56:36;15.60;;;11.43;;
3563;SDS011;1796;52.388;13.096;2023-05-23T12:59:05;12.87;;;11.47;;
3563;SDS011;1796;52.388;13.096;2023-05-23T13:01:32;17.40;;;11.40;;
3563;SDS011;1796;52.388;13.096;2023-05-23T13:03:59;17.20;;;12.40;;
3563;SDS011;1796;52.388;13.096;2023-05-23T13:06:27;16.60;;;13.10;;
3563;SDS011;1796;52.388;13.096;2023-05-23T13:08:54;20.13;;;13.00;;
3563;SDS011;1796;52.388;13.096;2023-05-23T13:11:21;16.33;;;13.30;;
3563;SDS011;1796;52.388;13.096;2023-05-23T13:13:48;14.80;;;13.30;;
3563;SDS011;1796;52.388;13.096;2023-05-23T13:16:16;20.50;;;15.63;;
3563;SDS011;1796;52.388;13.096;2023-05-23T13:18:44;20.90;;;16.67;;
3563;SDS011;1796;52.388;13.096;2023-05-23T13:21:11;23.23;;;15.10;;
3563;SDS011;1796;52.388;13.096;2023-05-23T13:23:38;21.33;;;17.23;;
3563;SDS011;1796;52.388;13.096;2023-05-23T13:26:05;23.70;;;16.60;;
3563;SDS011;1796;52.388;13.096;2023-05-23T13:28:32;23.17;;;17.90;;
3563;SDS011;1796;52.388;13.096;2023-05-23T13:30:59;23.30;;;18.20;;
3563;SDS011;1796;52.388;13.096;2023-05-23T13:33:28;25.30;;;19.33;;
3563;SDS011;1796;52.388;13.096;2023-05-23T13:35:55;23.03;;;18.50;;
3563;SDS011;1796;52.388;13.096;2023-05-23T13:38:22;25.37;;;18.30;;
3563;SDS011;1796;52.388;13.096;2023-05-23T13:40:51;30.13;;;18.77;;
3563;SDS011;1796;52.388;13.096;2023-05-23T13:43:18;30.77;;;18.63;;
3563;SDS011;1796;52.388;13.096;2023-05-23T13:45:45;23.23;;;17.20;;
3563;SDS011;1796;52.388;13.096;2023-05-23T13:48:12;21.63;;;16.30;;
3563;SDS011;1796;52.388;13.096;2023-05-23T13:50:40;24.77;;;16.83;;
3563;SDS011;1796;52.388;13.096;2023-05-23T13:53:07;27.13;;;17.17;;
3563;SDS011;1796;52.388;13.096;2023-05-23T13:55:39;29.10;;;18.23;;
3563;SDS011;1796;52.388;13.096;2023-05-23T13:58:06;24.90;;;16.07;;
3563;SDS011;1796;52.388;13.096;2023-05-23T14:00:32;26.67;;;18.07;;
3563;SDS011;1796;52.388;13.096;2023-05-23T14:02:59;28.93;;;18.27;;
3563;SDS011;1796;52.388;13.096;2023-05-23T14:05:26;26.93;;;16.30;;
3563;SDS011;1796;52.388;13.096;2023-05-23T14:07:54;27.43;;;17.40;;
3563;SDS011;1796;52.388;13.096;2023-05-23T14:10:21;29.30;;;16.67;;
3563;SDS011;1796;52.388;13.096;2023-05-23T14:12:48;24.03;;;16.60;;
3563;SDS011;1796;52.388;13.096;2023-05-23T14:15:15;23.17;;;16.60;;
3563;SDS011;1796;52.388;13.096;2023-05-23T14:17:42;23.30;;;15.77;;
3563;SDS011;1796;52.388;13.096;2023-05-23T14:20:09;23.60;;;15.90;;
3563;SDS011;1796;52.388;13.096;2023-05-23T14:22:36;21.00;;;14.50;;
3563;SDS011;1796;52.388;13.096;2023-05-23T14:25:05;19.37;;;14.40;;
3563;SDS011;1796;52.388;13.096;2023-05-23T14:27:40;21.10;;;14.70;;
3563;SDS011;1796;52.388;13.096;2023-05-23T14:30:08;18.53;;;13.53;;
3563;SDS011;1796;52.388;13.096;2023-05-23T14:32:35;16.70;;;12.97;;
3563;SDS011;1796;52.388;13.096;2023-05-23T14:35:03;22.80;;;15.07;;
3563;SDS011;1796;52.388;13.096;2023-05-23T14:37:31;20.73;;;13.67;;
3563;SDS011;1796;52.388;13.096;2023-05-23T14:39:58;16.40;;;12.40;;
3563;SDS011;1796;52.388;13.096;2023-05-23T14:42:25;20.60;;;10.77;;
3563;SDS011;1796;52.388;13.096;2023-05-23T14:44:53;11.00;;;9.63;;
3563;SDS011;1796;52.388;13.096;2023-05-23T14:47:20;19.10;;;10.90;;
3563;SDS011;1796;52.388;13.096;2023-05-23T14:49:47;14.53;;;11.73;;
3563;SDS011;1796;52.388;13.096;2023-05-23T14:52:15;14.50;;;11.03;;
3563;SDS011;1796;52.388;13.096;2023-05-23T14:54:42;12.90;;;11.60;;
3563;SDS011;1796;52.388;13.096;2023-05-23T14:57:09;16.30;;;11.23;;
3563;SDS011;1796;52.388;13.096;2023-05-23T14:59:35;15.50;;;10.80;;
3563;SDS011;1796;52.388;13.096;2023-05-23T15:02:04;13.10;;;10.20;;
3563;SDS011;1796;52.388;13.096;2023-05-23T15:04:31;18.03;;;11.10;;